NCAR-RAP Real-Time Weather Data

Output produced by METARs form (22 June 2018  20:44 UTC)
found at http://weather.rap.ucar.edu/surface/
 
KGTF 222037Z 29013G19KT 10SM VCTS BKN070 OVC100 24/11 A2988 RMK AO2 LTG DSNT NE AND SE T02390111
KGTF 221953Z 31007KT 10SM SCT100 24/11 A2990 RMK AO2 LTG DSNT NE AND SE RAB1856E06 SLP099 P0000 T02440111
KGTF 221934Z 30008KT 10SM VCTS FEW038 FEW110 24/12 A2990 RMK AO2 LTG DSNT E AND SE RAB1856E06 P0000 T02390117
KGTF 221902Z 32010G19KT 10SM -RA FEW065 BKN090 22/13 A2991 RMK AO2 LTG DSNT E RAB1856 P0000 T02170128
KGTF 221853Z 33014G21KT 10SM VCTS FEW050 SCT070 BKN090 23/11 A2990 RMK AO2 WSHFT 1832 LTG DSNT NE AND E SLP101 T02330111
KGTF 221841Z 29013KT 10SM VCTS SCT050 SCT065 BKN080 23/11 A2991 RMK AO2 LTG DSNT NE AND E T02330111
KGTF 221823Z 25014G20KT 10SM SCT055 BKN095 23/12 A2990 RMK AO2 LTG DSNT NE AND E T02330117
KGTF 221808Z 25014G23KT 10SM VCTS FEW060 24/12 A2990 RMK AO2 LTG DSNT E T02440117
KGTF 221753Z 24016KT 10SM SCT055 23/12 A2991 RMK AO2 LTG DSNT E SLP103 T02280117 10244 20156 56008
KGTF 221653Z 25016KT 10SM SCT120 23/12 A2992 RMK AO2 SLP103 T02330117
KGTF 221553Z 24015G21KT 10SM BKN100 23/11 A2992 RMK AO2 SLP105 T02280111
KGTF 221453Z 22012KT 10SM CLR 19/11 A2994 RMK AO2 SLP114 T01890111 52003
KGTF 221353Z 22009KT 10SM CLR 18/12 A2993 RMK AO2 SLP112 T01830122
KGTF 221253Z 22009KT 10SM CLR 17/12 A2993 RMK AO2 SLP106 T01670117
KGTF 221153Z 22010KT 10SM BKN095 16/12 A2993 RMK AO2 SLP108 70008 T01560117 10161 20144 50001
KGTF 221053Z 22010KT 10SM FEW110 15/11 A2993 RMK AO2 SLP108 T01500111
KGTF 220953Z 22010KT 10SM FEW095 14/11 A2992 RMK AO2 SLP107 T01440111
KGTF 220853Z 22010KT 10SM FEW080 BKN100 16/11 A2992 RMK AO2 SLP107 T01560111 51003